Apison, TN

10:57 AM EDT on May 27, 2015 (GMT -0400)
Collegedale Station | | Change Station
CLOSE
Current Station
Personal Weather Station
Location: Ooltewah, TN
Elevation: 883 ft
Nearby Weather Stations

Elev 883 ft 35.07 °N, 85.09 °W | Updated 5 minutes ago

Overcast
Overcast
73.9 °F
Feels Like 74 °F
N
2.2
Wind Variable Wind from SSW

Today
High -- | Low -- °F
--% Chance of Precip.
Yesterday
High -- | Low -- °F
Precip. -- in
6:29 AM 8:45 PM
Waxing Gibbous, 68% visible
Pressure 30.24 in
Visibility 10.0 miles
Clouds Scattered Clouds 1600 ft
Mostly Cloudy 2100 ft
Mostly Cloudy 3500 ft
Heat Index 74 °F
Dew Point 68 °F
Humidity 82%
Rainfall 0.00 in
Snow Depth Not available.
UV 4 out of 12
Pollen .80 out of 12
Air Quality Not available.
Flu Activity Sporadic
SPECI KCHA 271450Z 20004KT 10SM SCT016 BKN021 BKN035 22/19 A3024 RMK AO2

More Conditions Fewer Conditions

Pressure 30.24 in
Visibility 10.0 miles
Clouds Scattered Clouds 1600 ft
Mostly Cloudy 2100 ft
Mostly Cloudy 3500 ft
Heat Index 74 °F
Dew Point 68 °F
Humidity 82%
Rainfall 0.00 in
Snow Depth Not available.
UV 4 out of 12
Pollen .80 out of 12
Air Quality Not available.
Flu Activity Sporadic
SPECI KCHA 271450Z 20004KT 10SM SCT016 BKN021 BKN035 22/19 A3024 RMK AO2

More Conditions Fewer Conditions

10-Day Weather Forecast

Almanac

Astronomy

May. 27, 2015 Rise Set
Actual Time
Civil Twilight
Nautical Twilight
Astronomical Twilight
Moon
Length of Visible Light
Length of Day
Tomorrow will be .
, % of the Moon is Illuminated

Today's Extremes

State Highs State Lows

Community

WunderPhotos

Upload Photos

1,824,690 photos uploaded!

WunderBlogs® & News

Nearby

Air Quality

  Air Quality AQ Index Pollutant
Not available.

Snow Depth

Station Depth Elevation

Earthquake Activity

City Distance Mag. Time & Date
Minimum magnitude displayed is 2.5.

Coastal Water Temperatures

Place Temperature

Stations

Nearby Weather Stations

Station Location Temp. Windchill Dew Point Humidity Wind Precip. Elev Updated Type